Boaz, Illinois
Current Conditions -  °F | °C
As of 9:35 AM on Sunday 21 Dec 2014 (Local Time) from KM30 Reporting Station
Clear Clear  
Wind Chill: 34°   Ceiling: Unl
Heat Index: 34°   Visibility: 7mi
Dew Point: 32°   Wind: 3mph
Humidity: 93%   Direction: 100°E
Pressure: 30.24"   Gusts: NA
Location:  37.2846°N, 88.9742°W
Report Text: KM30 211535Z AUTO 10003KT 7SM CLR 01/00 A3024 RMK AO2 T00100000
Loading
Personal Weather Stations






























Interactive Weather Map New forecast layout! Learn more

10-Day Weather Forecast

Advertisements
Track Severe Weather on mobile